createdAt,value
2022-12-31T00:01:47.592Z,14.20
2022-12-31T00:04:14.771Z,14.20
2022-12-31T00:06:41.722Z,14.10
2022-12-31T00:09:11.130Z,14.10
2022-12-31T00:11:39.346Z,14.10
2022-12-31T00:14:07.470Z,14.10
2022-12-31T00:16:48.793Z,14.10
2022-12-31T00:19:16.200Z,14.10
2022-12-31T00:21:43.963Z,14.20
2022-12-31T00:24:14.184Z,14.20
2022-12-31T00:26:42.335Z,14.20
2022-12-31T00:29:10.750Z,14.20
2022-12-31T00:31:39.095Z,14.30
2022-12-31T00:34:07.780Z,14.40
2022-12-31T00:36:37.514Z,14.40
2022-12-31T00:39:08.296Z,14.50
2022-12-31T00:41:37.633Z,14.50
2022-12-31T00:44:04.923Z,14.60
2022-12-31T00:46:33.236Z,14.70
2022-12-31T00:49:42.708Z,14.70
2022-12-31T00:52:14.033Z,14.80
2022-12-31T00:54:40.915Z,14.90
2022-12-31T00:57:09.994Z,15.00
2022-12-31T00:59:39.533Z,15.30
2022-12-31T01:02:07.794Z,15.40
2022-12-31T01:04:35.206Z,15.40
2022-12-31T01:07:02.093Z,15.30
2022-12-31T01:09:29.221Z,15.40
2022-12-31T01:11:57.226Z,15.40
2022-12-31T01:14:27.632Z,15.30
2022-12-31T01:16:57.377Z,15.30
2022-12-31T01:19:27.848Z,15.30
2022-12-31T01:21:56.814Z,15.30
2022-12-31T01:24:25.238Z,15.30
2022-12-31T01:26:52.241Z,15.20
2022-12-31T01:29:22.220Z,15.30
2022-12-31T01:31:49.164Z,15.30
2022-12-31T01:34:19.415Z,15.40
2022-12-31T01:36:46.708Z,15.40
2022-12-31T01:39:14.375Z,15.40
2022-12-31T01:41:47.105Z,15.40
2022-12-31T01:44:28.055Z,15.40
2022-12-31T01:47:02.271Z,15.40
2022-12-31T01:49:43.802Z,15.40
2022-12-31T01:52:22.817Z,15.50
2022-12-31T01:55:16.400Z,15.40
2022-12-31T01:57:47.110Z,15.40
2022-12-31T02:00:15.832Z,15.40
2022-12-31T02:02:45.193Z,15.40
2022-12-31T02:05:26.421Z,15.40
2022-12-31T02:07:54.898Z,15.40
2022-12-31T02:10:24.451Z,15.40
2022-12-31T02:12:52.621Z,15.40
2022-12-31T02:15:24.212Z,15.30
2022-12-31T02:18:09.831Z,15.30
2022-12-31T02:21:03.283Z,15.20
2022-12-31T02:23:49.256Z,15.00
2022-12-31T02:26:28.085Z,14.90
2022-12-31T02:29:17.180Z,14.90
2022-12-31T02:31:58.062Z,14.90
2022-12-31T02:34:36.650Z,14.90
2022-12-31T02:37:09.859Z,14.90
2022-12-31T02:39:40.380Z,15.00
2022-12-31T02:42:07.567Z,15.10
2022-12-31T02:44:37.291Z,15.10
2022-12-31T02:47:13.344Z,15.10
2022-12-31T02:49:40.283Z,15.10
2022-12-31T02:52:14.174Z,15.10
2022-12-31T02:55:14.491Z,15.10
2022-12-31T02:58:19.496Z,15.00
2022-12-31T03:01:10.378Z,15.00
2022-12-31T03:03:38.749Z,15.00
2022-12-31T03:06:09.625Z,15.10
2022-12-31T03:08:56.744Z,15.10
2022-12-31T03:11:42.936Z,15.10
2022-12-31T03:14:11.256Z,15.10
2022-12-31T03:16:38.179Z,15.10
2022-12-31T03:19:27.129Z,15.10
2022-12-31T03:22:12.836Z,15.20
2022-12-31T03:25:01.468Z,15.30
2022-12-31T03:28:07.358Z,15.30
2022-12-31T03:30:37.907Z,15.40
2022-12-31T03:33:07.697Z,15.40
2022-12-31T03:35:36.544Z,15.40
2022-12-31T03:38:04.200Z,15.40
2022-12-31T03:40:34.933Z,15.40
2022-12-31T03:43:04.406Z,15.40
2022-12-31T03:45:31.475Z,15.50
2022-12-31T03:48:00.677Z,15.50
2022-12-31T03:50:29.257Z,15.50
2022-12-31T03:52:57.308Z,15.60
2022-12-31T03:55:24.570Z,15.60
2022-12-31T03:57:52.962Z,15.60
2022-12-31T04:00:22.682Z,15.70
2022-12-31T04:02:51.074Z,15.80
2022-12-31T04:05:19.411Z,15.80
2022-12-31T04:07:46.383Z,15.80
2022-12-31T04:10:15.396Z,15.80
2022-12-31T04:12:43.027Z,15.80
2022-12-31T04:15:11.887Z,15.80
2022-12-31T04:17:39.014Z,15.90
2022-12-31T04:20:07.838Z,16.00
2022-12-31T04:22:36.078Z,16.00
2022-12-31T04:25:06.278Z,16.00
2022-12-31T04:27:33.308Z,16.00
2022-12-31T04:30:00.309Z,15.90
2022-12-31T04:32:27.288Z,15.80
2022-12-31T04:34:55.308Z,15.70
2022-12-31T04:37:22.595Z,15.50
2022-12-31T04:39:50.510Z,15.40
2022-12-31T04:42:19.624Z,15.40
2022-12-31T04:44:47.732Z,15.50
2022-12-31T04:47:20.215Z,15.60
2022-12-31T04:49:52.098Z,15.60
2022-12-31T04:52:21.801Z,15.70
2022-12-31T04:54:50.676Z,15.80
2022-12-31T04:57:17.714Z,15.80
2022-12-31T04:59:46.006Z,15.80
2022-12-31T05:02:38.658Z,15.90
2022-12-31T05:05:49.186Z,15.90
2022-12-31T05:08:22.215Z,16.00
2022-12-31T05:10:50.925Z,16.10
2022-12-31T05:13:18.898Z,16.10
2022-12-31T05:15:46.692Z,16.10
2022-12-31T05:18:16.274Z,16.20
2022-12-31T05:20:44.356Z,16.20
2022-12-31T05:23:11.701Z,16.30
2022-12-31T05:25:38.744Z,16.30
2022-12-31T05:28:06.884Z,16.30
2022-12-31T05:30:34.113Z,16.40
2022-12-31T05:33:03.016Z,16.40
2022-12-31T05:35:31.280Z,16.40
2022-12-31T05:37:59.732Z,16.40
2022-12-31T05:40:27.674Z,16.40
2022-12-31T05:42:55.751Z,16.40
2022-12-31T05:45:30.125Z,16.40
2022-12-31T05:47:59.174Z,16.40
2022-12-31T05:50:26.401Z,16.40
2022-12-31T05:52:56.768Z,16.40
2022-12-31T05:55:23.856Z,16.40
2022-12-31T05:57:50.984Z,16.50
2022-12-31T06:00:18.320Z,16.50
2022-12-31T06:02:45.920Z,16.50
2022-12-31T06:05:14.044Z,16.50
2022-12-31T06:07:42.003Z,16.50
2022-12-31T06:10:09.215Z,16.50
2022-12-31T06:12:38.391Z,16.40
2022-12-31T06:15:06.564Z,16.40
2022-12-31T06:17:34.752Z,16.40
2022-12-31T06:20:06.007Z,16.40
2022-12-31T06:22:36.995Z,16.50
2022-12-31T06:25:08.066Z,16.50
2022-12-31T06:27:36.209Z,16.50
2022-12-31T06:30:06.416Z,16.50
2022-12-31T06:32:38.616Z,16.50
2022-12-31T06:35:06.588Z,16.50
2022-12-31T06:37:33.710Z,16.50
2022-12-31T06:40:05.933Z,16.50
2022-12-31T06:42:33.017Z,16.50
2022-12-31T06:45:01.440Z,16.40
2022-12-31T06:47:31.105Z,16.40
2022-12-31T06:50:00.144Z,16.40
2022-12-31T06:52:27.221Z,16.40
2022-12-31T06:54:55.628Z,16.40
2022-12-31T06:57:24.163Z,16.40
2022-12-31T06:59:57.489Z,16.40
2022-12-31T07:02:50.921Z,16.30
2022-12-31T07:05:45.931Z,16.00
2022-12-31T07:08:36.470Z,15.60
2022-12-31T07:11:21.825Z,15.50
2022-12-31T07:14:04.806Z,15.40
2022-12-31T07:16:46.890Z,15.40
2022-12-31T07:19:46.340Z,15.30
2022-12-31T07:22:16.059Z,15.30
2022-12-31T07:24:49.842Z,15.30
2022-12-31T07:27:35.990Z,15.20
2022-12-31T07:30:35.559Z,15.30
2022-12-31T07:33:21.826Z,15.40
2022-12-31T07:36:10.824Z,15.50
2022-12-31T07:38:48.026Z,15.60
2022-12-31T07:41:27.152Z,15.60
2022-12-31T07:44:16.059Z,15.70
2022-12-31T07:46:57.006Z,15.80
2022-12-31T07:49:28.390Z,15.80
2022-12-31T07:51:57.080Z,15.70
2022-12-31T07:54:27.148Z,15.70
2022-12-31T07:57:20.561Z,15.70
2022-12-31T07:59:57.265Z,15.70
2022-12-31T08:02:52.597Z,15.70
2022-12-31T08:05:25.770Z,15.80
2022-12-31T08:07:53.687Z,15.90
2022-12-31T08:10:46.631Z,15.90
2022-12-31T08:13:22.012Z,15.90
2022-12-31T08:16:00.267Z,15.90
2022-12-31T08:18:29.029Z,15.90
2022-12-31T08:21:14.380Z,15.90
2022-12-31T08:24:05.222Z,16.00
2022-12-31T08:26:42.408Z,16.00
2022-12-31T08:30:05.008Z,16.10
2022-12-31T08:33:07.837Z,16.10
2022-12-31T08:35:41.516Z,16.20
2022-12-31T08:38:26.947Z,16.20
2022-12-31T08:42:01.043Z,16.30
2022-12-31T08:48:53.403Z,16.30
2022-12-31T08:51:27.618Z,16.30
2022-12-31T08:53:59.397Z,16.30
2022-12-31T08:57:41.925Z,16.30
2022-12-31T09:08:52.948Z,16.10
2022-12-31T09:11:30.449Z,16.20
2022-12-31T09:14:44.394Z,16.10
2022-12-31T09:17:37.857Z,16.20
2022-12-31T09:20:05.787Z,16.20
2022-12-31T09:22:32.801Z,16.20
2022-12-31T09:25:00.238Z,16.20
2022-12-31T09:27:40.490Z,16.30
2022-12-31T09:30:13.254Z,16.30
2022-12-31T09:33:05.918Z,16.30
2022-12-31T09:35:43.106Z,16.30
2022-12-31T09:38:42.296Z,16.30
2022-12-31T09:41:14.836Z,16.20
2022-12-31T09:43:41.663Z,16.10
2022-12-31T09:46:47.159Z,16.10
2022-12-31T09:49:45.937Z,16.10
2022-12-31T09:52:40.707Z,16.10
2022-12-31T09:55:08.221Z,16.20
2022-12-31T09:57:40.768Z,16.20
2022-12-31T10:00:31.237Z,16.30
2022-12-31T10:03:43.038Z,16.30
2022-12-31T10:06:24.305Z,16.40
2022-12-31T10:09:37.344Z,16.40
2022-12-31T10:12:19.127Z,16.60
2022-12-31T10:14:56.862Z,16.60
2022-12-31T10:18:02.753Z,16.60
2022-12-31T10:21:02.936Z,16.50
2022-12-31T10:23:38.924Z,16.50
2022-12-31T10:26:23.449Z,16.60
2022-12-31T10:28:57.367Z,16.60
2022-12-31T10:31:36.379Z,16.50
2022-12-31T10:34:34.163Z,16.50
2022-12-31T10:37:23.307Z,16.50
2022-12-31T10:40:03.387Z,16.50
2022-12-31T10:42:58.549Z,16.50
2022-12-31T10:45:55.550Z,16.50
2022-12-31T10:48:54.713Z,16.50
2022-12-31T10:51:36.936Z,16.50
2022-12-31T10:54:26.711Z,16.50
2022-12-31T10:57:21.628Z,16.50
2022-12-31T11:00:00.949Z,16.50
2022-12-31T11:03:28.859Z,16.50
2022-12-31T11:06:14.639Z,16.60
2022-12-31T11:09:03.186Z,16.60
2022-12-31T11:12:33.148Z,16.50
2022-12-31T11:15:49.883Z,16.30
2022-12-31T11:18:35.502Z,16.20
2022-12-31T11:25:34.502Z,16.10
2022-12-31T11:28:40.999Z,16.10
2022-12-31T11:31:49.109Z,16.10
2022-12-31T11:34:37.565Z,16.10
2022-12-31T11:37:18.095Z,16.20
2022-12-31T11:40:15.311Z,16.20
2022-12-31T11:43:11.402Z,16.20
2022-12-31T11:46:02.020Z,16.20
2022-12-31T11:48:45.065Z,16.30
2022-12-31T11:51:50.475Z,16.20
2022-12-31T11:54:30.048Z,16.20
2022-12-31T11:57:26.708Z,16.30
2022-12-31T11:59:59.618Z,16.30
2022-12-31T12:02:32.907Z,16.40
2022-12-31T12:05:10.342Z,16.40
2022-12-31T12:07:38.988Z,16.40
2022-12-31T12:10:43.490Z,16.40
2022-12-31T12:13:14.638Z,16.40
2022-12-31T12:15:58.164Z,16.50
2022-12-31T12:18:47.884Z,16.40
2022-12-31T12:21:25.555Z,16.40
2022-12-31T12:24:00.313Z,16.40
2022-12-31T12:26:35.944Z,16.40
2022-12-31T12:29:21.813Z,16.30
2022-12-31T12:32:28.729Z,16.30
2022-12-31T12:35:07.789Z,16.20
2022-12-31T12:37:46.176Z,16.20
2022-12-31T12:44:22.531Z,16.10
2022-12-31T12:46:52.822Z,16.00
2022-12-31T12:49:34.740Z,16.00
2022-12-31T12:52:20.030Z,15.90
2022-12-31T12:55:10.875Z,15.90
2022-12-31T12:58:18.846Z,16.00
2022-12-31T13:01:25.707Z,16.00
2022-12-31T13:04:51.982Z,16.00
2022-12-31T13:07:38.676Z,16.10
2022-12-31T13:10:11.842Z,16.10
2022-12-31T13:16:02.045Z,16.20
2022-12-31T13:18:42.984Z,16.10
2022-12-31T13:21:26.896Z,16.20
2022-12-31T13:24:17.385Z,16.20
2022-12-31T13:27:13.220Z,16.20
2022-12-31T13:29:43.932Z,16.10
2022-12-31T13:32:20.065Z,16.10
2022-12-31T13:34:53.839Z,16.20
2022-12-31T13:37:28.664Z,16.20
2022-12-31T13:40:06.737Z,16.20
2022-12-31T13:42:59.443Z,16.10
2022-12-31T13:45:38.254Z,16.10
2022-12-31T13:48:14.558Z,16.10
2022-12-31T13:51:14.215Z,16.10
2022-12-31T13:53:53.192Z,16.10
2022-12-31T13:56:28.172Z,16.20
2022-12-31T13:59:14.992Z,16.20
2022-12-31T14:02:29.444Z,16.20
2022-12-31T14:05:26.492Z,16.10
2022-12-31T14:08:00.859Z,16.10
2022-12-31T14:10:49.763Z,16.00
2022-12-31T14:13:35.126Z,16.00
2022-12-31T14:16:31.740Z,16.00
2022-12-31T14:19:23.655Z,16.00
2022-12-31T14:22:07.590Z,16.00
2022-12-31T14:24:47.685Z,15.90
2022-12-31T14:27:37.131Z,15.90
2022-12-31T14:30:13.506Z,15.90
2022-12-31T14:33:00.284Z,15.90
2022-12-31T14:35:51.508Z,15.90
2022-12-31T14:38:29.320Z,15.90
2022-12-31T14:41:15.700Z,15.90
2022-12-31T14:43:52.827Z,15.90
2022-12-31T14:46:40.259Z,15.90
2022-12-31T14:49:51.713Z,15.90
2022-12-31T14:52:25.254Z,15.90
2022-12-31T14:55:23.346Z,15.90
2022-12-31T14:58:26.297Z,15.90
2022-12-31T15:00:52.935Z,15.90
2022-12-31T15:03:25.278Z,15.90
2022-12-31T15:06:22.743Z,15.90
2022-12-31T15:09:17.362Z,15.90
2022-12-31T15:12:05.335Z,15.90
2022-12-31T15:15:05.268Z,15.90
2022-12-31T15:17:59.155Z,16.00
2022-12-31T15:20:53.948Z,16.00
2022-12-31T15:23:36.955Z,16.00
2022-12-31T15:26:05.809Z,16.00
2022-12-31T15:28:37.499Z,16.00
2022-12-31T15:31:18.565Z,16.00
2022-12-31T15:34:23.583Z,16.00
2022-12-31T15:36:56.981Z,16.00
2022-12-31T15:39:36.026Z,15.90
2022-12-31T15:42:37.723Z,16.00
2022-12-31T15:45:11.976Z,15.90
2022-12-31T15:47:49.886Z,15.90
2022-12-31T15:50:22.621Z,15.90
2022-12-31T15:53:00.857Z,15.90
2022-12-31T15:55:38.740Z,15.90
2022-12-31T15:58:11.365Z,15.80
2022-12-31T16:00:49.478Z,15.80
2022-12-31T16:03:22.501Z,15.80
2022-12-31T16:05:51.491Z,15.80
2022-12-31T16:08:25.133Z,15.80
2022-12-31T16:10:55.658Z,15.80
2022-12-31T16:13:25.410Z,15.80
2022-12-31T16:16:04.068Z,15.80
2022-12-31T16:18:43.374Z,15.80
2022-12-31T16:21:37.605Z,15.70
2022-12-31T16:24:31.756Z,15.80
2022-12-31T16:27:06.730Z,15.80
2022-12-31T16:29:43.065Z,15.80
2022-12-31T16:32:20.482Z,15.80
2022-12-31T16:34:52.490Z,15.70
2022-12-31T16:37:21.748Z,15.70
2022-12-31T16:40:19.211Z,15.70
2022-12-31T16:42:49.085Z,15.60
2022-12-31T16:46:09.598Z,15.60
2022-12-31T16:48:38.763Z,15.60
2022-12-31T16:51:20.423Z,15.60
2022-12-31T16:53:49.309Z,15.70
2022-12-31T16:56:34.413Z,15.70
2022-12-31T16:59:35.924Z,15.70
2022-12-31T17:02:16.389Z,15.70
2022-12-31T17:04:56.071Z,15.70
2022-12-31T17:07:38.615Z,15.70
2022-12-31T17:10:37.289Z,15.60
2022-12-31T17:13:28.202Z,15.70
2022-12-31T17:16:05.713Z,15.60
2022-12-31T17:18:39.116Z,15.60
2022-12-31T17:21:10.198Z,15.60
2022-12-31T17:23:40.458Z,15.60
2022-12-31T17:26:14.379Z,15.60
2022-12-31T17:28:47.466Z,15.70
2022-12-31T17:31:36.392Z,15.80
2022-12-31T17:34:23.586Z,15.80
2022-12-31T17:37:03.802Z,15.80
2022-12-31T17:39:49.516Z,15.80
2022-12-31T17:42:34.809Z,15.80
2022-12-31T17:45:09.286Z,15.80
2022-12-31T17:47:41.463Z,15.90
2022-12-31T17:50:23.583Z,15.90
2022-12-31T17:52:52.603Z,15.90
2022-12-31T17:55:19.460Z,15.90
2022-12-31T17:57:54.477Z,15.90
2022-12-31T18:00:26.871Z,15.90
2022-12-31T18:02:55.329Z,16.00
2022-12-31T18:05:26.735Z,16.00
2022-12-31T18:07:55.409Z,16.00
2022-12-31T18:10:25.379Z,16.00
2022-12-31T18:12:52.353Z,16.10
2022-12-31T18:15:23.062Z,16.20
2022-12-31T18:17:51.641Z,16.10
2022-12-31T18:20:18.614Z,16.10
2022-12-31T18:22:47.382Z,16.10
2022-12-31T18:25:24.218Z,16.10
2022-12-31T18:27:56.010Z,16.20
2022-12-31T18:30:23.808Z,16.20
2022-12-31T18:32:54.071Z,16.20
2022-12-31T18:38:15.902Z,16.20
2022-12-31T18:40:58.512Z,16.10
2022-12-31T18:43:36.417Z,16.10
2022-12-31T18:46:06.324Z,16.10
2022-12-31T18:48:45.868Z,16.10
2022-12-31T18:51:31.316Z,16.10
2022-12-31T18:54:02.047Z,16.00
2022-12-31T18:56:30.214Z,16.00
2022-12-31T18:58:57.233Z,16.00
2022-12-31T19:01:37.442Z,16.00
2022-12-31T19:04:22.809Z,16.00
2022-12-31T19:06:53.784Z,16.00
2022-12-31T19:09:44.021Z,16.00
2022-12-31T19:12:14.283Z,16.00
2022-12-31T19:14:41.233Z,16.00
2022-12-31T19:19:45.053Z,15.90
2022-12-31T19:22:15.520Z,16.00
2022-12-31T19:24:42.467Z,16.00
2022-12-31T19:27:10.032Z,16.00
2022-12-31T19:29:38.059Z,16.00
2022-12-31T19:32:06.560Z,16.00
2022-12-31T19:34:34.686Z,16.00
2022-12-31T19:37:03.822Z,16.00
2022-12-31T19:39:31.529Z,15.90
2022-12-31T19:41:59.445Z,15.90
2022-12-31T19:44:27.788Z,15.90
2022-12-31T19:46:55.736Z,15.90
2022-12-31T19:49:25.169Z,16.00
2022-12-31T19:51:53.586Z,15.90
2022-12-31T19:54:21.915Z,16.00
2022-12-31T19:56:48.769Z,16.00
2022-12-31T19:59:17.296Z,16.00
2022-12-31T20:01:45.230Z,16.00
2022-12-31T20:04:12.305Z,16.00
2022-12-31T20:06:39.256Z,16.00
2022-12-31T20:09:06.182Z,16.00
2022-12-31T20:11:35.627Z,16.10
2022-12-31T20:14:04.389Z,16.10
2022-12-31T20:16:31.756Z,16.10
2022-12-31T20:18:58.803Z,16.10
2022-12-31T20:21:28.364Z,16.10
2022-12-31T20:23:55.684Z,16.10
2022-12-31T20:26:24.912Z,16.20
2022-12-31T20:28:52.502Z,16.10
2022-12-31T20:31:25.124Z,16.10
2022-12-31T20:33:54.732Z,16.10
2022-12-31T20:36:22.497Z,16.10
2022-12-31T20:38:49.459Z,16.10
2022-12-31T20:41:20.130Z,16.00
2022-12-31T20:43:47.899Z,15.90
2022-12-31T20:46:21.926Z,15.90
2022-12-31T20:48:50.228Z,15.80
2022-12-31T20:51:18.284Z,15.80
2022-12-31T20:53:57.287Z,15.80
2022-12-31T20:56:26.751Z,15.80
2022-12-31T20:58:53.621Z,15.80
2022-12-31T21:01:23.438Z,15.80
2022-12-31T21:04:04.878Z,15.80
2022-12-31T21:06:34.092Z,15.90
2022-12-31T21:09:06.667Z,15.90
2022-12-31T21:11:53.970Z,15.90
2022-12-31T21:14:21.309Z,15.90
2022-12-31T21:16:49.490Z,16.00
2022-12-31T21:19:19.717Z,16.00
2022-12-31T21:21:48.276Z,16.00
2022-12-31T21:24:20.173Z,16.00
2022-12-31T21:26:54.762Z,16.10
2022-12-31T21:29:23.089Z,16.10
2022-12-31T21:31:49.992Z,16.10
2022-12-31T21:34:18.099Z,16.10
2022-12-31T21:36:44.987Z,16.10
2022-12-31T21:39:12.091Z,16.10
2022-12-31T21:41:51.576Z,16.10
2022-12-31T21:44:23.053Z,16.10
2022-12-31T21:47:37.266Z,16.00
2022-12-31T21:50:05.800Z,16.00
2022-12-31T21:52:37.271Z,16.00
2022-12-31T21:55:24.170Z,16.00
2022-12-31T22:00:59.432Z,16.10
2022-12-31T22:03:28.387Z,16.10
2022-12-31T22:06:09.618Z,16.20
2022-12-31T22:08:37.050Z,16.20
2022-12-31T22:11:05.155Z,16.20
2022-12-31T22:13:46.673Z,16.20
2022-12-31T22:16:18.758Z,16.20
2022-12-31T22:18:49.248Z,16.30
2022-12-31T22:21:22.186Z,16.30
2022-12-31T22:23:55.557Z,16.40
2022-12-31T22:26:28.867Z,16.40
2022-12-31T22:29:04.472Z,16.40
2022-12-31T22:31:31.892Z,16.50
2022-12-31T22:34:02.549Z,16.50
2022-12-31T22:36:31.757Z,16.50
2022-12-31T22:39:00.574Z,16.40
2022-12-31T22:41:28.359Z,16.40
2022-12-31T22:44:03.669Z,16.40
2022-12-31T22:46:33.655Z,16.40
2022-12-31T22:49:04.536Z,16.40
2022-12-31T22:51:57.112Z,16.40
2022-12-31T22:54:20.953Z,16.50
2022-12-31T22:56:51.608Z,16.50
2022-12-31T22:59:18.910Z,16.50
2022-12-31T23:01:46.937Z,16.50
2022-12-31T23:04:15.456Z,16.50
2022-12-31T23:06:45.606Z,16.50
2022-12-31T23:09:33.229Z,16.40
2022-12-31T23:12:01.072Z,16.40
2022-12-31T23:14:46.325Z,16.40
2022-12-31T23:17:38.279Z,16.40
2022-12-31T23:20:29.742Z,16.40
2022-12-31T23:23:09.960Z,16.30
2022-12-31T23:25:36.979Z,16.30
2022-12-31T23:28:04.970Z,16.20
2022-12-31T23:30:32.247Z,16.20
2022-12-31T23:32:59.888Z,16.30
2022-12-31T23:35:26.830Z,16.20
2022-12-31T23:37:53.675Z,16.10
2022-12-31T23:40:21.984Z,16.10
2022-12-31T23:42:50.157Z,16.10
2022-12-31T23:45:18.877Z,16.00
2022-12-31T23:47:46.932Z,16.00
2022-12-31T23:50:13.929Z,16.00
2022-12-31T23:52:40.787Z,16.00
2022-12-31T23:55:08.055Z,16.00
2022-12-31T23:57:35.225Z,15.90
